sensor_id;sensor_type;location;lat;lon;timestamp;P1;durP1;ratioP1;P2;durP2;ratioP2
6852;SDS011;3465;42.144;24.722;2023-02-25T00:00:26;77.73;;;31.30;;
6852;SDS011;3465;42.144;24.722;2023-02-25T00:02:55;75.00;;;32.07;;
6852;SDS011;3465;42.144;24.722;2023-02-25T00:05:21;78.03;;;30.83;;
6852;SDS011;3465;42.144;24.722;2023-02-25T00:07:47;73.03;;;32.63;;
6852;SDS011;3465;42.144;24.722;2023-02-25T00:10:13;73.20;;;30.33;;
6852;SDS011;3465;42.144;24.722;2023-02-25T00:12:39;68.07;;;28.93;;
6852;SDS011;3465;42.144;24.722;2023-02-25T00:15:05;65.57;;;28.70;;
6852;SDS011;3465;42.144;24.722;2023-02-25T00:17:31;63.10;;;29.87;;
6852;SDS011;3465;42.144;24.722;2023-02-25T00:19:57;71.73;;;29.33;;
6852;SDS011;3465;42.144;24.722;2023-02-25T00:22:23;74.73;;;30.03;;
6852;SDS011;3465;42.144;24.722;2023-02-25T00:24:53;62.40;;;29.30;;
6852;SDS011;3465;42.144;24.722;2023-02-25T00:27:19;69.30;;;30.33;;
6852;SDS011;3465;42.144;24.722;2023-02-25T00:29:45;73.37;;;29.53;;
6852;SDS011;3465;42.144;24.722;2023-02-25T00:32:10;70.93;;;30.47;;
6852;SDS011;3465;42.144;24.722;2023-02-25T00:34:35;66.67;;;29.40;;
6852;SDS011;3465;42.144;24.722;2023-02-25T00:37:01;72.20;;;30.90;;
6852;SDS011;3465;42.144;24.722;2023-02-25T00:39:27;65.50;;;29.40;;
6852;SDS011;3465;42.144;24.722;2023-02-25T00:42:10;73.37;;;29.73;;
6852;SDS011;3465;42.144;24.722;2023-02-25T00:44:43;67.13;;;29.47;;
6852;SDS011;3465;42.144;24.722;2023-02-25T00:47:13;70.60;;;29.27;;
6852;SDS011;3465;42.144;24.722;2023-02-25T00:49:39;65.60;;;29.50;;
6852;SDS011;3465;42.144;24.722;2023-02-25T00:52:05;66.67;;;28.53;;
6852;SDS011;3465;42.144;24.722;2023-02-25T00:54:32;61.67;;;28.57;;
6852;SDS011;3465;42.144;24.722;2023-02-25T00:56:57;70.77;;;29.27;;
6852;SDS011;3465;42.144;24.722;2023-02-25T00:59:23;70.03;;;30.33;;
6852;SDS011;3465;42.144;24.722;2023-02-25T01:01:49;69.37;;;30.30;;
6852;SDS011;3465;42.144;24.722;2023-02-25T01:04:14;70.47;;;29.97;;
6852;SDS011;3465;42.144;24.722;2023-02-25T01:06:40;73.13;;;28.73;;
6852;SDS011;3465;42.144;24.722;2023-02-25T01:09:06;69.33;;;29.30;;
6852;SDS011;3465;42.144;24.722;2023-02-25T01:11:38;68.07;;;28.80;;
6852;SDS011;3465;42.144;24.722;2023-02-25T01:14:06;76.43;;;30.53;;
6852;SDS011;3465;42.144;24.722;2023-02-25T01:16:34;74.03;;;29.83;;
6852;SDS011;3465;42.144;24.722;2023-02-25T01:19:02;71.10;;;28.57;;
6852;SDS011;3465;42.144;24.722;2023-02-25T01:21:38;64.13;;;28.77;;
6852;SDS011;3465;42.144;24.722;2023-02-25T01:24:14;68.27;;;27.60;;
6852;SDS011;3465;42.144;24.722;2023-02-25T01:26:42;73.67;;;32.40;;
6852;SDS011;3465;42.144;24.722;2023-02-25T01:29:10;67.87;;;29.47;;
6852;SDS011;3465;42.144;24.722;2023-02-25T01:31:37;67.53;;;28.47;;
6852;SDS011;3465;42.144;24.722;2023-02-25T01:34:04;65.23;;;28.43;;
6852;SDS011;3465;42.144;24.722;2023-02-25T01:36:31;72.93;;;29.23;;
6852;SDS011;3465;42.144;24.722;2023-02-25T01:38:58;64.10;;;27.53;;
6852;SDS011;3465;42.144;24.722;2023-02-25T01:41:24;61.17;;;26.60;;
6852;SDS011;3465;42.144;24.722;2023-02-25T01:46:34;63.63;;;26.77;;
6852;SDS011;3465;42.144;24.722;2023-02-25T01:49:11;63.17;;;25.83;;
6852;SDS011;3465;42.144;24.722;2023-02-25T01:51:38;55.33;;;24.73;;
6852;SDS011;3465;42.144;24.722;2023-02-25T01:54:06;56.53;;;24.90;;
6852;SDS011;3465;42.144;24.722;2023-02-25T01:56:35;57.50;;;24.43;;
6852;SDS011;3465;42.144;24.722;2023-02-25T01:59:02;57.43;;;24.87;;
6852;SDS011;3465;42.144;24.722;2023-02-25T02:01:28;56.13;;;23.40;;
6852;SDS011;3465;42.144;24.722;2023-02-25T02:03:58;59.20;;;25.60;;
6852;SDS011;3465;42.144;24.722;2023-02-25T02:06:30;52.90;;;24.90;;
6852;SDS011;3465;42.144;24.722;2023-02-25T02:09:00;63.70;;;26.60;;
6852;SDS011;3465;42.144;24.722;2023-02-25T02:11:28;56.70;;;25.83;;
6852;SDS011;3465;42.144;24.722;2023-02-25T02:13:54;60.60;;;25.80;;
6852;SDS011;3465;42.144;24.722;2023-02-25T02:33:41;65.50;;;27.47;;
6852;SDS011;3465;42.144;24.722;2023-02-25T02:36:21;73.93;;;26.53;;
6852;SDS011;3465;42.144;24.722;2023-02-25T02:41:25;58.80;;;24.77;;
6852;SDS011;3465;42.144;24.722;2023-02-25T02:43:56;54.77;;;23.37;;
6852;SDS011;3465;42.144;24.722;2023-02-25T02:46:34;58.70;;;23.50;;
6852;SDS011;3465;42.144;24.722;2023-02-25T02:49:05;50.67;;;23.40;;
6852;SDS011;3465;42.144;24.722;2023-02-25T02:51:40;58.13;;;24.07;;
6852;SDS011;3465;42.144;24.722;2023-02-25T02:54:12;53.40;;;21.63;;
6852;SDS011;3465;42.144;24.722;2023-02-25T02:56:40;53.73;;;21.60;;
6852;SDS011;3465;42.144;24.722;2023-02-25T02:59:09;53.57;;;22.93;;
6852;SDS011;3465;42.144;24.722;2023-02-25T03:01:40;59.27;;;23.70;;
6852;SDS011;3465;42.144;24.722;2023-02-25T03:04:11;54.53;;;24.03;;
6852;SDS011;3465;42.144;24.722;2023-02-25T03:06:42;53.40;;;22.97;;
6852;SDS011;3465;42.144;24.722;2023-02-25T03:09:20;55.87;;;23.83;;
6852;SDS011;3465;42.144;24.722;2023-02-25T03:11:51;55.63;;;23.47;;
6852;SDS011;3465;42.144;24.722;2023-02-25T03:14:16;46.87;;;22.67;;
6852;SDS011;3465;42.144;24.722;2023-02-25T03:16:46;51.60;;;22.97;;
6852;SDS011;3465;42.144;24.722;2023-02-25T03:19:22;53.30;;;22.47;;
6852;SDS011;3465;42.144;24.722;2023-02-25T03:22:31;48.17;;;21.90;;
6852;SDS011;3465;42.144;24.722;2023-02-25T03:27:32;49.37;;;22.53;;
6852;SDS011;3465;42.144;24.722;2023-02-25T03:32:29;56.27;;;22.13;;
6852;SDS011;3465;42.144;24.722;2023-02-25T03:34:56;54.33;;;23.23;;
6852;SDS011;3465;42.144;24.722;2023-02-25T03:37:24;51.50;;;21.90;;
6852;SDS011;3465;42.144;24.722;2023-02-25T03:39:54;50.77;;;23.23;;
6852;SDS011;3465;42.144;24.722;2023-02-25T03:42:28;53.40;;;23.83;;
6852;SDS011;3465;42.144;24.722;2023-02-25T03:44:57;60.10;;;25.00;;
6852;SDS011;3465;42.144;24.722;2023-02-25T03:47:26;55.63;;;23.23;;
6852;SDS011;3465;42.144;24.722;2023-02-25T03:52:55;56.93;;;24.67;;
6852;SDS011;3465;42.144;24.722;2023-02-25T03:55:22;56.10;;;24.07;;
6852;SDS011;3465;42.144;24.722;2023-02-25T03:57:49;59.90;;;25.23;;
6852;SDS011;3465;42.144;24.722;2023-02-25T04:00:17;65.70;;;26.03;;
6852;SDS011;3465;42.144;24.722;2023-02-25T04:02:47;65.03;;;26.70;;
6852;SDS011;3465;42.144;24.722;2023-02-25T04:05:15;55.67;;;25.40;;
6852;SDS011;3465;42.144;24.722;2023-02-25T04:07:41;58.63;;;25.40;;
6852;SDS011;3465;42.144;24.722;2023-02-25T04:10:09;57.13;;;25.17;;
6852;SDS011;3465;42.144;24.722;2023-02-25T04:12:36;59.97;;;24.47;;
6852;SDS011;3465;42.144;24.722;2023-02-25T04:15:02;55.57;;;23.87;;
6852;SDS011;3465;42.144;24.722;2023-02-25T04:17:28;56.60;;;24.27;;
6852;SDS011;3465;42.144;24.722;2023-02-25T04:19:53;54.97;;;23.97;;
6852;SDS011;3465;42.144;24.722;2023-02-25T04:22:18;62.40;;;25.27;;
6852;SDS011;3465;42.144;24.722;2023-02-25T04:24:44;48.83;;;22.63;;
6852;SDS011;3465;42.144;24.722;2023-02-25T04:27:09;48.27;;;22.10;;
6852;SDS011;3465;42.144;24.722;2023-02-25T04:29:35;50.07;;;23.23;;
6852;SDS011;3465;42.144;24.722;2023-02-25T04:32:00;54.60;;;24.13;;
6852;SDS011;3465;42.144;24.722;2023-02-25T04:34:26;49.60;;;22.07;;
6852;SDS011;3465;42.144;24.722;2023-02-25T04:36:51;45.50;;;21.60;;
6852;SDS011;3465;42.144;24.722;2023-02-25T04:39:17;46.73;;;21.27;;
6852;SDS011;3465;42.144;24.722;2023-02-25T04:41:42;43.10;;;20.93;;
6852;SDS011;3465;42.144;24.722;2023-02-25T04:44:08;43.60;;;20.90;;
6852;SDS011;3465;42.144;24.722;2023-02-25T04:46:38;45.57;;;21.37;;
6852;SDS011;3465;42.144;24.722;2023-02-25T04:49:06;44.77;;;20.50;;
6852;SDS011;3465;42.144;24.722;2023-02-25T04:51:33;48.07;;;22.57;;
6852;SDS011;3465;42.144;24.722;2023-02-25T04:54:00;44.17;;;21.93;;
6852;SDS011;3465;42.144;24.722;2023-02-25T04:56:25;48.87;;;20.77;;
6852;SDS011;3465;42.144;24.722;2023-02-25T04:58:51;46.13;;;22.93;;
6852;SDS011;3465;42.144;24.722;2023-02-25T05:01:17;45.43;;;22.10;;
6852;SDS011;3465;42.144;24.722;2023-02-25T05:03:43;50.20;;;22.50;;
6852;SDS011;3465;42.144;24.722;2023-02-25T05:06:08;51.70;;;21.20;;
6852;SDS011;3465;42.144;24.722;2023-02-25T05:08:34;43.27;;;21.90;;
6852;SDS011;3465;42.144;24.722;2023-02-25T05:11:01;49.23;;;21.93;;
6852;SDS011;3465;42.144;24.722;2023-02-25T05:13:27;51.87;;;22.67;;
6852;SDS011;3465;42.144;24.722;2023-02-25T05:16:06;43.63;;;21.40;;
6852;SDS011;3465;42.144;24.722;2023-02-25T05:18:35;47.93;;;21.23;;
6852;SDS011;3465;42.144;24.722;2023-02-25T05:21:07;48.93;;;21.33;;
6852;SDS011;3465;42.144;24.722;2023-02-25T05:23:34;51.90;;;21.13;;
6852;SDS011;3465;42.144;24.722;2023-02-25T05:25:59;49.23;;;21.60;;
6852;SDS011;3465;42.144;24.722;2023-02-25T05:28:26;50.93;;;21.70;;
6852;SDS011;3465;42.144;24.722;2023-02-25T05:30:51;47.70;;;21.73;;
6852;SDS011;3465;42.144;24.722;2023-02-25T05:33:19;35.73;;;18.30;;
6852;SDS011;3465;42.144;24.722;2023-02-25T05:35:44;42.60;;;19.57;;
6852;SDS011;3465;42.144;24.722;2023-02-25T05:38:09;42.70;;;18.47;;
6852;SDS011;3465;42.144;24.722;2023-02-25T05:40:37;42.93;;;19.33;;
6852;SDS011;3465;42.144;24.722;2023-02-25T05:43:03;40.83;;;18.17;;
6852;SDS011;3465;42.144;24.722;2023-02-25T05:45:28;41.43;;;17.83;;
6852;SDS011;3465;42.144;24.722;2023-02-25T05:47:53;37.10;;;18.03;;
6852;SDS011;3465;42.144;24.722;2023-02-25T05:50:19;36.50;;;18.10;;
6852;SDS011;3465;42.144;24.722;2023-02-25T05:52:44;40.53;;;18.30;;
6852;SDS011;3465;42.144;24.722;2023-02-25T05:55:10;51.27;;;19.07;;
6852;SDS011;3465;42.144;24.722;2023-02-25T05:57:36;40.27;;;19.50;;
6852;SDS011;3465;42.144;24.722;2023-02-25T06:00:03;37.80;;;17.73;;
6852;SDS011;3465;42.144;24.722;2023-02-25T06:02:33;33.53;;;16.83;;
6852;SDS011;3465;42.144;24.722;2023-02-25T06:04:59;33.77;;;16.53;;
6852;SDS011;3465;42.144;24.722;2023-02-25T06:07:27;34.00;;;17.40;;
6852;SDS011;3465;42.144;24.722;2023-02-25T06:09:54;30.53;;;16.93;;
6852;SDS011;3465;42.144;24.722;2023-02-25T06:12:24;30.20;;;15.47;;
6852;SDS011;3465;42.144;24.722;2023-02-25T06:14:49;34.40;;;16.93;;
6852;SDS011;3465;42.144;24.722;2023-02-25T06:17:14;31.07;;;16.77;;
6852;SDS011;3465;42.144;24.722;2023-02-25T06:19:40;32.50;;;16.60;;
6852;SDS011;3465;42.144;24.722;2023-02-25T06:22:05;34.03;;;17.57;;
6852;SDS011;3465;42.144;24.722;2023-02-25T06:24:31;38.07;;;19.33;;
6852;SDS011;3465;42.144;24.722;2023-02-25T06:26:56;38.10;;;17.97;;
6852;SDS011;3465;42.144;24.722;2023-02-25T06:29:22;34.80;;;17.23;;
6852;SDS011;3465;42.144;24.722;2023-02-25T06:31:48;33.70;;;17.60;;
6852;SDS011;3465;42.144;24.722;2023-02-25T06:34:14;31.57;;;16.77;;
6852;SDS011;3465;42.144;24.722;2023-02-25T06:36:39;29.03;;;16.23;;
6852;SDS011;3465;42.144;24.722;2023-02-25T06:39:05;30.17;;;15.80;;
6852;SDS011;3465;42.144;24.722;2023-02-25T06:41:30;33.13;;;16.50;;
6852;SDS011;3465;42.144;24.722;2023-02-25T06:43:55;32.47;;;17.30;;
6852;SDS011;3465;42.144;24.722;2023-02-25T06:46:22;38.33;;;20.53;;
6852;SDS011;3465;42.144;24.722;2023-02-25T06:48:49;34.27;;;15.80;;
6852;SDS011;3465;42.144;24.722;2023-02-25T06:51:14;28.93;;;16.40;;
6852;SDS011;3465;42.144;24.722;2023-02-25T06:53:41;31.70;;;16.33;;
6852;SDS011;3465;42.144;24.722;2023-02-25T06:56:08;38.33;;;17.00;;
6852;SDS011;3465;42.144;24.722;2023-02-25T06:58:35;32.00;;;17.87;;
6852;SDS011;3465;42.144;24.722;2023-02-25T07:01:08;30.60;;;17.40;;
6852;SDS011;3465;42.144;24.722;2023-02-25T07:03:37;39.43;;;17.50;;
6852;SDS011;3465;42.144;24.722;2023-02-25T07:06:03;36.13;;;17.73;;
6852;SDS011;3465;42.144;24.722;2023-02-25T07:08:29;31.47;;;16.77;;
6852;SDS011;3465;42.144;24.722;2023-02-25T07:10:55;33.40;;;18.23;;
6852;SDS011;3465;42.144;24.722;2023-02-25T07:13:20;44.50;;;19.90;;
6852;SDS011;3465;42.144;24.722;2023-02-25T07:15:46;38.90;;;19.57;;
6852;SDS011;3465;42.144;24.722;2023-02-25T07:18:11;42.17;;;19.43;;
6852;SDS011;3465;42.144;24.722;2023-02-25T07:20:36;42.47;;;21.03;;
6852;SDS011;3465;42.144;24.722;2023-02-25T07:23:04;43.83;;;21.10;;
6852;SDS011;3465;42.144;24.722;2023-02-25T07:25:29;47.57;;;20.57;;
6852;SDS011;3465;42.144;24.722;2023-02-25T07:27:55;39.93;;;20.90;;
6852;SDS011;3465;42.144;24.722;2023-02-25T07:30:20;48.13;;;21.97;;
6852;SDS011;3465;42.144;24.722;2023-02-25T07:32:46;43.73;;;20.20;;
6852;SDS011;3465;42.144;24.722;2023-02-25T07:35:11;44.97;;;20.87;;
6852;SDS011;3465;42.144;24.722;2023-02-25T07:37:37;38.77;;;19.93;;
6852;SDS011;3465;42.144;24.722;2023-02-25T07:40:06;45.80;;;20.93;;
6852;SDS011;3465;42.144;24.722;2023-02-25T07:42:38;41.27;;;20.13;;
6852;SDS011;3465;42.144;24.722;2023-02-25T07:45:05;39.60;;;20.27;;
6852;SDS011;3465;42.144;24.722;2023-02-25T07:47:31;44.77;;;20.20;;
6852;SDS011;3465;42.144;24.722;2023-02-25T07:49:57;37.37;;;19.70;;
6852;SDS011;3465;42.144;24.722;2023-02-25T07:52:22;41.00;;;19.43;;
6852;SDS011;3465;42.144;24.722;2023-02-25T07:54:47;34.07;;;18.73;;
6852;SDS011;3465;42.144;24.722;2023-02-25T07:57:13;40.13;;;19.67;;
6852;SDS011;3465;42.144;24.722;2023-02-25T07:59:38;37.73;;;19.33;;
6852;SDS011;3465;42.144;24.722;2023-02-25T08:02:04;33.97;;;17.80;;
6852;SDS011;3465;42.144;24.722;2023-02-25T08:04:29;42.17;;;18.93;;
6852;SDS011;3465;42.144;24.722;2023-02-25T08:06:54;36.70;;;18.67;;
6852;SDS011;3465;42.144;24.722;2023-02-25T08:09:20;37.97;;;19.10;;
6852;SDS011;3465;42.144;24.722;2023-02-25T08:11:45;42.87;;;18.83;;
6852;SDS011;3465;42.144;24.722;2023-02-25T08:14:11;35.87;;;17.30;;
6852;SDS011;3465;42.144;24.722;2023-02-25T08:16:36;33.73;;;17.83;;
6852;SDS011;3465;42.144;24.722;2023-02-25T08:19:03;34.13;;;17.73;;
6852;SDS011;3465;42.144;24.722;2023-02-25T08:21:29;32.83;;;18.60;;
6852;SDS011;3465;42.144;24.722;2023-02-25T08:23:56;32.80;;;17.20;;
6852;SDS011;3465;42.144;24.722;2023-02-25T08:26:22;34.30;;;16.90;;
6852;SDS011;3465;42.144;24.722;2023-02-25T08:28:49;32.77;;;17.03;;
6852;SDS011;3465;42.144;24.722;2023-02-25T08:31:15;29.67;;;16.33;;
6852;SDS011;3465;42.144;24.722;2023-02-25T08:33:42;32.73;;;16.53;;
6852;SDS011;3465;42.144;24.722;2023-02-25T08:36:16;30.77;;;15.60;;
6852;SDS011;3465;42.144;24.722;2023-02-25T08:38:47;28.33;;;15.83;;
6852;SDS011;3465;42.144;24.722;2023-02-25T08:41:13;30.87;;;15.93;;
6852;SDS011;3465;42.144;24.722;2023-02-25T08:43:50;28.33;;;16.57;;
6852;SDS011;3465;42.144;24.722;2023-02-25T08:46:18;25.65;;;14.63;;
6852;SDS011;3465;42.144;24.722;2023-02-25T08:48:49;27.27;;;15.80;;
6852;SDS011;3465;42.144;24.722;2023-02-25T08:51:15;32.13;;;16.20;;
6852;SDS011;3465;42.144;24.722;2023-02-25T08:53:41;26.40;;;15.63;;
6852;SDS011;3465;42.144;24.722;2023-02-25T08:56:08;28.63;;;15.65;;
6852;SDS011;3465;42.144;24.722;2023-02-25T08:58:35;24.17;;;15.02;;
6852;SDS011;3465;42.144;24.722;2023-02-25T09:01:05;27.02;;;15.50;;
6852;SDS011;3465;42.144;24.722;2023-02-25T09:03:32;27.88;;;16.25;;
6852;SDS011;3465;42.144;24.722;2023-02-25T09:05:58;26.40;;;16.05;;
6852;SDS011;3465;42.144;24.722;2023-02-25T09:08:23;31.38;;;16.45;;
6852;SDS011;3465;42.144;24.722;2023-02-25T09:10:49;30.67;;;17.05;;
6852;SDS011;3465;42.144;24.722;2023-02-25T09:13:14;28.80;;;17.02;;
6852;SDS011;3465;42.144;24.722;2023-02-25T09:15:41;32.08;;;18.33;;
6852;SDS011;3465;42.144;24.722;2023-02-25T09:18:06;36.28;;;17.95;;
6852;SDS011;3465;42.144;24.722;2023-02-25T09:20:32;37.97;;;18.67;;
6852;SDS011;3465;42.144;24.722;2023-02-25T09:22:58;37.35;;;18.98;;
6852;SDS011;3465;42.144;24.722;2023-02-25T09:25:24;32.72;;;18.58;;
6852;SDS011;3465;42.144;24.722;2023-02-25T09:27:50;33.90;;;19.02;;
6852;SDS011;3465;42.144;24.722;2023-02-25T09:30:15;34.15;;;18.92;;
6852;SDS011;3465;42.144;24.722;2023-02-25T09:32:41;37.28;;;19.30;;
6852;SDS011;3465;42.144;24.722;2023-02-25T09:35:06;35.88;;;20.27;;
6852;SDS011;3465;42.144;24.722;2023-02-25T09:37:33;33.30;;;19.50;;
6852;SDS011;3465;42.144;24.722;2023-02-25T09:39:59;43.83;;;21.50;;
6852;SDS011;3465;42.144;24.722;2023-02-25T09:42:27;33.25;;;19.88;;
6852;SDS011;3465;42.144;24.722;2023-02-25T09:45:09;44.33;;;21.38;;
6852;SDS011;3465;42.144;24.722;2023-02-25T09:47:43;41.80;;;20.67;;
6852;SDS011;3465;42.144;24.722;2023-02-25T09:50:15;36.17;;;20.75;;
6852;SDS011;3465;42.144;24.722;2023-02-25T09:52:46;36.80;;;19.50;;
6852;SDS011;3465;42.144;24.722;2023-02-25T10:06:41;45.75;;;24.92;;
6852;SDS011;3465;42.144;24.722;2023-02-25T10:22:50;46.25;;;24.15;;
6852;SDS011;3465;42.144;24.722;2023-02-25T10:25:53;43.35;;;22.70;;
6852;SDS011;3465;42.144;24.722;2023-02-25T10:28:22;47.38;;;22.85;;
6852;SDS011;3465;42.144;24.722;2023-02-25T10:30:58;45.33;;;22.10;;
6852;SDS011;3465;42.144;24.722;2023-02-25T10:33:30;43.63;;;22.40;;
6852;SDS011;3465;42.144;24.722;2023-02-25T10:36:08;39.27;;;20.30;;
6852;SDS011;3465;42.144;24.722;2023-02-25T10:38:41;39.67;;;20.83;;
6852;SDS011;3465;42.144;24.722;2023-02-25T10:41:09;46.90;;;21.23;;
6852;SDS011;3465;42.144;24.722;2023-02-25T10:43:36;40.07;;;20.40;;
6852;SDS011;3465;42.144;24.722;2023-02-25T10:48:55;40.20;;;20.27;;
6852;SDS011;3465;42.144;24.722;2023-02-25T10:51:23;44.07;;;21.03;;
6852;SDS011;3465;42.144;24.722;2023-02-25T10:56:16;39.43;;;20.80;;
6852;SDS011;3465;42.144;24.722;2023-02-25T10:58:43;39.50;;;20.03;;
6852;SDS011;3465;42.144;24.722;2023-02-25T11:01:14;38.77;;;19.07;;
6852;SDS011;3465;42.144;24.722;2023-02-25T11:03:50;36.30;;;18.53;;
6852;SDS011;3465;42.144;24.722;2023-02-25T11:06:27;39.73;;;18.73;;
6852;SDS011;3465;42.144;24.722;2023-02-25T11:09:00;41.27;;;18.60;;
6852;SDS011;3465;42.144;24.722;2023-02-25T11:16:34;33.25;;;17.40;;
6852;SDS011;3465;42.144;24.722;2023-02-25T11:19:16;37.85;;;17.52;;
6852;SDS011;3465;42.144;24.722;2023-02-25T11:21:42;36.67;;;16.80;;
6852;SDS011;3465;42.144;24.722;2023-02-25T11:24:12;30.65;;;17.33;;
6852;SDS011;3465;42.144;24.722;2023-02-25T11:26:41;31.98;;;16.27;;
6852;SDS011;3465;42.144;24.722;2023-02-25T11:29:15;40.60;;;17.17;;
6852;SDS011;3465;42.144;24.722;2023-02-25T11:31:49;36.22;;;16.70;;
6852;SDS011;3465;42.144;24.722;2023-02-25T11:36:51;33.75;;;15.75;;
6852;SDS011;3465;42.144;24.722;2023-02-25T11:39:18;27.25;;;15.50;;
6852;SDS011;3465;42.144;24.722;2023-02-25T11:41:47;31.42;;;15.73;;
6852;SDS011;3465;42.144;24.722;2023-02-25T11:47:23;34.85;;;16.35;;
6852;SDS011;3465;42.144;24.722;2023-02-25T11:57:56;37.20;;;16.02;;
6852;SDS011;3465;42.144;24.722;2023-02-25T12:00:29;36.28;;;15.52;;
6852;SDS011;3465;42.144;24.722;2023-02-25T12:03:11;29.02;;;13.65;;
6852;SDS011;3465;42.144;24.722;2023-02-25T12:22:13;28.35;;;12.43;;
6852;SDS011;3465;42.144;24.722;2023-02-25T12:25:04;34.35;;;12.75;;
6852;SDS011;3465;42.144;24.722;2023-02-25T12:30:15;31.45;;;12.07;;
6852;SDS011;3465;42.144;24.722;2023-02-25T12:58:02;26.48;;;13.05;;
6852;SDS011;3465;42.144;24.722;2023-02-25T13:09:06;26.65;;;12.82;;
6852;SDS011;3465;42.144;24.722;2023-02-25T13:11:54;27.63;;;13.35;;
6852;SDS011;3465;42.144;24.722;2023-02-25T13:22:42;24.27;;;10.98;;
6852;SDS011;3465;42.144;24.722;2023-02-25T13:27:52;26.88;;;11.15;;
6852;SDS011;3465;42.144;24.722;2023-02-25T13:30:28;27.77;;;11.65;;
6852;SDS011;3465;42.144;24.722;2023-02-25T13:35:46;35.20;;;12.45;;
6852;SDS011;3465;42.144;24.722;2023-02-25T14:02:23;28.90;;;11.57;;
6852;SDS011;3465;42.144;24.722;2023-02-25T14:05:19;32.33;;;11.77;;
6852;SDS011;3465;42.144;24.722;2023-02-25T14:18:48;32.53;;;12.17;;
6852;SDS011;3465;42.144;24.722;2023-02-25T14:23:58;30.92;;;12.65;;
6852;SDS011;3465;42.144;24.722;2023-02-25T14:26:52;24.92;;;11.43;;
6852;SDS011;3465;42.144;24.722;2023-02-25T14:37:47;29.90;;;11.67;;
6852;SDS011;3465;42.144;24.722;2023-02-25T14:43:41;32.07;;;11.60;;
6852;SDS011;3465;42.144;24.722;2023-02-25T14:46:27;32.43;;;11.53;;
6852;SDS011;3465;42.144;24.722;2023-02-25T14:49:13;28.63;;;12.33;;
6852;SDS011;3465;42.144;24.722;2023-02-25T14:59:59;39.23;;;12.83;;
6852;SDS011;3465;42.144;24.722;2023-02-25T15:13:13;28.93;;;12.53;;
6852;SDS011;3465;42.144;24.722;2023-02-25T15:21:50;39.97;;;14.50;;
6852;SDS011;3465;42.144;24.722;2023-02-25T15:24:41;41.10;;;15.03;;
6852;SDS011;3465;42.144;24.722;2023-02-25T15:30:01;45.63;;;15.60;;
6852;SDS011;3465;42.144;24.722;2023-02-25T15:32:52;34.37;;;13.77;;
6852;SDS011;3465;42.144;24.722;2023-02-25T15:38:17;44.57;;;15.93;;
6852;SDS011;3465;42.144;24.722;2023-02-25T15:40:49;44.50;;;15.07;;
6852;SDS011;3465;42.144;24.722;2023-02-25T15:45:42;46.47;;;17.90;;
6852;SDS011;3465;42.144;24.722;2023-02-25T15:55:48;46.80;;;16.17;;
6852;SDS011;3465;42.144;24.722;2023-02-25T16:06:13;46.13;;;21.27;;
6852;SDS011;3465;42.144;24.722;2023-02-25T16:13:53;64.03;;;20.47;;
6852;SDS011;3465;42.144;24.722;2023-02-25T16:16:19;53.67;;;19.90;;
6852;SDS011;3465;42.144;24.722;2023-02-25T16:18:47;58.50;;;19.40;;
6852;SDS011;3465;42.144;24.722;2023-02-25T16:23:46;60.50;;;21.33;;
6852;SDS011;3465;42.144;24.722;2023-02-25T16:34:38;66.60;;;20.70;;
6852;SDS011;3465;42.144;24.722;2023-02-25T16:39:58;61.17;;;21.70;;
6852;SDS011;3465;42.144;24.722;2023-02-25T16:42:24;58.60;;;21.10;;
6852;SDS011;3465;42.144;24.722;2023-02-25T16:44:57;60.60;;;21.77;;
6852;SDS011;3465;42.144;24.722;2023-02-25T16:47:32;75.33;;;26.87;;
6852;SDS011;3465;42.144;24.722;2023-02-25T16:50:04;68.87;;;21.53;;
6852;SDS011;3465;42.144;24.722;2023-02-25T16:52:38;69.20;;;21.53;;
6852;SDS011;3465;42.144;24.722;2023-02-25T16:55:12;76.23;;;27.90;;
6852;SDS011;3465;42.144;24.722;2023-02-25T16:58:28;72.87;;;27.73;;
6852;SDS011;3465;42.144;24.722;2023-02-25T17:00:31;99.87;;;36.70;;
6852;SDS011;3465;42.144;24.722;2023-02-25T17:03:01;73.97;;;28.07;;
6852;SDS011;3465;42.144;24.722;2023-02-25T17:05:33;77.60;;;26.27;;
6852;SDS011;3465;42.144;24.722;2023-02-25T17:08:04;76.97;;;25.47;;
6852;SDS011;3465;42.144;24.722;2023-02-25T17:10:42;63.27;;;22.50;;
6852;SDS011;3465;42.144;24.722;2023-02-25T17:13:12;54.70;;;22.17;;
6852;SDS011;3465;42.144;24.722;2023-02-25T17:15:41;59.67;;;21.90;;
6852;SDS011;3465;42.144;24.722;2023-02-25T17:18:17;63.67;;;23.53;;
6852;SDS011;3465;42.144;24.722;2023-02-25T17:20:51;57.37;;;22.33;;
6852;SDS011;3465;42.144;24.722;2023-02-25T17:23:23;57.43;;;23.07;;
6852;SDS011;3465;42.144;24.722;2023-02-25T17:25:49;59.40;;;23.27;;
6852;SDS011;3465;42.144;24.722;2023-02-25T17:28:20;58.60;;;23.73;;
6852;SDS011;3465;42.144;24.722;2023-02-25T17:30:49;72.23;;;26.37;;
6852;SDS011;3465;42.144;24.722;2023-02-25T17:35:45;82.77;;;28.13;;
6852;SDS011;3465;42.144;24.722;2023-02-25T17:38:19;73.73;;;28.47;;
6852;SDS011;3465;42.144;24.722;2023-02-25T17:40:47;77.57;;;27.87;;
6852;SDS011;3465;42.144;24.722;2023-02-25T17:43:17;75.57;;;27.57;;
6852;SDS011;3465;42.144;24.722;2023-02-25T17:48:17;70.23;;;26.10;;
6852;SDS011;3465;42.144;24.722;2023-02-25T17:51:19;77.30;;;27.07;;
6852;SDS011;3465;42.144;24.722;2023-02-25T17:56:18;71.70;;;29.93;;
6852;SDS011;3465;42.144;24.722;2023-02-25T17:58:48;73.17;;;28.30;;
6852;SDS011;3465;42.144;24.722;2023-02-25T18:01:19;72.03;;;28.90;;
6852;SDS011;3465;42.144;24.722;2023-02-25T18:03:55;74.47;;;28.23;;
6852;SDS011;3465;42.144;24.722;2023-02-25T18:06:28;78.87;;;31.63;;
6852;SDS011;3465;42.144;24.722;2023-02-25T18:09:01;80.47;;;29.73;;
6852;SDS011;3465;42.144;24.722;2023-02-25T18:11:28;78.70;;;30.63;;
6852;SDS011;3465;42.144;24.722;2023-02-25T18:13:57;72.60;;;28.47;;
6852;SDS011;3465;42.144;24.722;2023-02-25T18:18:51;61.03;;;26.57;;
6852;SDS011;3465;42.144;24.722;2023-02-25T18:21:18;57.10;;;27.17;;
6852;SDS011;3465;42.144;24.722;2023-02-25T18:23:44;79.63;;;31.40;;
6852;SDS011;3465;42.144;24.722;2023-02-25T18:26:13;73.40;;;30.00;;
6852;SDS011;3465;42.144;24.722;2023-02-25T18:28:39;92.20;;;30.90;;
6852;SDS011;3465;42.144;24.722;2023-02-25T18:31:04;86.73;;;30.27;;
6852;SDS011;3465;42.144;24.722;2023-02-25T18:33:30;84.47;;;31.30;;
6852;SDS011;3465;42.144;24.722;2023-02-25T18:35:56;71.00;;;28.97;;
6852;SDS011;3465;42.144;24.722;2023-02-25T18:38:22;70.80;;;25.97;;
6852;SDS011;3465;42.144;24.722;2023-02-25T18:40:49;66.97;;;25.97;;
6852;SDS011;3465;42.144;24.722;2023-02-25T18:43:18;69.03;;;26.63;;
6852;SDS011;3465;42.144;24.722;2023-02-25T18:45:45;54.43;;;23.07;;
6852;SDS011;3465;42.144;24.722;2023-02-25T18:48:11;49.50;;;22.33;;
6852;SDS011;3465;42.144;24.722;2023-02-25T18:50:37;57.43;;;22.47;;
6852;SDS011;3465;42.144;24.722;2023-02-25T18:53:08;61.00;;;23.20;;
6852;SDS011;3465;42.144;24.722;2023-02-25T18:55:38;51.00;;;22.63;;
6852;SDS011;3465;42.144;24.722;2023-02-25T18:58:03;59.13;;;21.57;;
6852;SDS011;3465;42.144;24.722;2023-02-25T19:00:29;70.87;;;23.47;;
6852;SDS011;3465;42.144;24.722;2023-02-25T19:02:59;52.47;;;21.67;;
6852;SDS011;3465;42.144;24.722;2023-02-25T19:05:25;59.47;;;21.40;;
6852;SDS011;3465;42.144;24.722;2023-02-25T19:07:51;53.50;;;21.30;;
6852;SDS011;3465;42.144;24.722;2023-02-25T19:10:19;52.00;;;21.57;;
6852;SDS011;3465;42.144;24.722;2023-02-25T19:12:47;52.17;;;20.43;;
6852;SDS011;3465;42.144;24.722;2023-02-25T19:15:16;52.23;;;19.87;;
6852;SDS011;3465;42.144;24.722;2023-02-25T19:17:43;54.13;;;21.90;;